sensor_id;sensor_type;location;lat;lon;timestamp;P1;durP1;ratioP1;P2;durP2;ratioP2
75021;SDS011;63583;49.976;20.182;2023-10-19T00:00:39;21.33;;;10.38;;
75021;SDS011;63583;49.976;20.182;2023-10-19T00:03:30;18.73;;;10.23;;
75021;SDS011;63583;49.976;20.182;2023-10-19T00:05:55;15.38;;;9.18;;
75021;SDS011;63583;49.976;20.182;2023-10-19T00:08:21;16.40;;;8.40;;
75021;SDS011;63583;49.976;20.182;2023-10-19T00:10:49;16.70;;;8.73;;
75021;SDS011;63583;49.976;20.182;2023-10-19T00:13:34;14.68;;;8.20;;
75021;SDS011;63583;49.976;20.182;2023-10-19T00:16:06;14.23;;;8.75;;
75021;SDS011;63583;49.976;20.182;2023-10-19T00:18:45;17.73;;;8.23;;
75021;SDS011;63583;49.976;20.182;2023-10-19T00:21:15;16.10;;;8.27;;
75021;SDS011;63583;49.976;20.182;2023-10-19T00:23:45;15.52;;;8.60;;
75021;SDS011;63583;49.976;20.182;2023-10-19T00:26:15;14.65;;;9.15;;
75021;SDS011;63583;49.976;20.182;2023-10-19T00:28:44;15.52;;;8.35;;
75021;SDS011;63583;49.976;20.182;2023-10-19T00:31:12;13.05;;;8.00;;
75021;SDS011;63583;49.976;20.182;2023-10-19T00:33:39;13.75;;;7.90;;
75021;SDS011;63583;49.976;20.182;2023-10-19T00:36:05;14.30;;;7.78;;
75021;SDS011;63583;49.976;20.182;2023-10-19T00:38:38;13.90;;;7.05;;
75021;SDS011;63583;49.976;20.182;2023-10-19T00:41:13;12.75;;;6.88;;
75021;SDS011;63583;49.976;20.182;2023-10-19T00:43:41;12.50;;;7.13;;
75021;SDS011;63583;49.976;20.182;2023-10-19T00:46:14;14.45;;;7.38;;
75021;SDS011;63583;49.976;20.182;2023-10-19T00:48:50;13.65;;;7.45;;
75021;SDS011;63583;49.976;20.182;2023-10-19T00:51:20;12.00;;;6.68;;
75021;SDS011;63583;49.976;20.182;2023-10-19T00:54:04;16.58;;;7.43;;
75021;SDS011;63583;49.976;20.182;2023-10-19T00:56:36;14.32;;;6.80;;
75021;SDS011;63583;49.976;20.182;2023-10-19T00:59:03;12.05;;;7.05;;
75021;SDS011;63583;49.976;20.182;2023-10-19T01:01:40;12.05;;;6.90;;
75021;SDS011;63583;49.976;20.182;2023-10-19T01:04:13;17.23;;;8.57;;
75021;SDS011;63583;49.976;20.182;2023-10-19T01:06:41;13.90;;;6.72;;
75021;SDS011;63583;49.976;20.182;2023-10-19T01:09:23;13.13;;;6.80;;
75021;SDS011;63583;49.976;20.182;2023-10-19T01:11:52;11.15;;;6.97;;
75021;SDS011;63583;49.976;20.182;2023-10-19T01:14:21;14.15;;;7.35;;
75021;SDS011;63583;49.976;20.182;2023-10-19T01:16:49;14.55;;;7.78;;
75021;SDS011;63583;49.976;20.182;2023-10-19T01:19:15;15.70;;;8.43;;
75021;SDS011;63583;49.976;20.182;2023-10-19T01:21:44;11.77;;;7.05;;
75021;SDS011;63583;49.976;20.182;2023-10-19T01:24:18;13.10;;;7.13;;
75021;SDS011;63583;49.976;20.182;2023-10-19T01:27:05;13.48;;;7.05;;
75021;SDS011;63583;49.976;20.182;2023-10-19T01:29:34;11.50;;;6.97;;
75021;SDS011;63583;49.976;20.182;2023-10-19T01:32:03;14.13;;;7.22;;
75021;SDS011;63583;49.976;20.182;2023-10-19T01:34:37;12.77;;;7.30;;
75021;SDS011;63583;49.976;20.182;2023-10-19T01:37:03;13.50;;;7.45;;
75021;SDS011;63583;49.976;20.182;2023-10-19T01:39:32;13.98;;;7.82;;
75021;SDS011;63583;49.976;20.182;2023-10-19T01:42:00;12.93;;;7.00;;
75021;SDS011;63583;49.976;20.182;2023-10-19T01:44:30;12.43;;;6.70;;
75021;SDS011;63583;49.976;20.182;2023-10-19T01:46:55;14.15;;;7.05;;
75021;SDS011;63583;49.976;20.182;2023-10-19T01:49:21;11.20;;;6.80;;
75021;SDS011;63583;49.976;20.182;2023-10-19T01:51:53;14.85;;;6.72;;
75021;SDS011;63583;49.976;20.182;2023-10-19T01:54:23;12.57;;;6.43;;
75021;SDS011;63583;49.976;20.182;2023-10-19T01:56:51;14.43;;;7.05;;
75021;SDS011;63583;49.976;20.182;2023-10-19T01:59:22;15.38;;;8.40;;
75021;SDS011;63583;49.976;20.182;2023-10-19T02:01:48;21.25;;;9.52;;
75021;SDS011;63583;49.976;20.182;2023-10-19T02:04:14;20.27;;;10.73;;
75021;SDS011;63583;49.976;20.182;2023-10-19T02:06:40;19.08;;;9.98;;
75021;SDS011;63583;49.976;20.182;2023-10-19T02:09:10;14.68;;;7.60;;
75021;SDS011;63583;49.976;20.182;2023-10-19T02:11:43;15.38;;;8.18;;
75021;SDS011;63583;49.976;20.182;2023-10-19T02:14:13;13.57;;;6.65;;
75021;SDS011;63583;49.976;20.182;2023-10-19T02:16:43;12.93;;;6.45;;
75021;SDS011;63583;49.976;20.182;2023-10-19T02:19:13;11.98;;;7.10;;
75021;SDS011;63583;49.976;20.182;2023-10-19T02:21:39;10.77;;;7.03;;
75021;SDS011;63583;49.976;20.182;2023-10-19T02:24:06;13.05;;;6.75;;
75021;SDS011;63583;49.976;20.182;2023-10-19T02:26:32;12.77;;;6.78;;
75021;SDS011;63583;49.976;20.182;2023-10-19T02:28:59;13.48;;;7.35;;
75021;SDS011;63583;49.976;20.182;2023-10-19T02:31:25;14.45;;;8.05;;
75021;SDS011;63583;49.976;20.182;2023-10-19T02:33:51;13.35;;;7.07;;
75021;SDS011;63583;49.976;20.182;2023-10-19T02:36:23;14.45;;;6.68;;
75021;SDS011;63583;49.976;20.182;2023-10-19T02:38:53;13.40;;;6.88;;
75021;SDS011;63583;49.976;20.182;2023-10-19T02:41:19;11.27;;;6.70;;
75021;SDS011;63583;49.976;20.182;2023-10-19T02:43:46;12.77;;;6.68;;
75021;SDS011;63583;49.976;20.182;2023-10-19T02:46:16;16.52;;;9.45;;
75021;SDS011;63583;49.976;20.182;2023-10-19T02:48:46;19.45;;;10.32;;
75021;SDS011;63583;49.976;20.182;2023-10-19T02:53:41;17.48;;;9.48;;
75021;SDS011;63583;49.976;20.182;2023-10-19T02:56:11;17.50;;;9.95;;
75021;SDS011;63583;49.976;20.182;2023-10-19T02:58:40;15.77;;;8.75;;
75021;SDS011;63583;49.976;20.182;2023-10-19T03:01:18;17.10;;;7.95;;
75021;SDS011;63583;49.976;20.182;2023-10-19T03:03:52;16.00;;;7.85;;
75021;SDS011;63583;49.976;20.182;2023-10-19T03:06:23;14.10;;;7.82;;
75021;SDS011;63583;49.976;20.182;2023-10-19T03:08:49;12.85;;;7.57;;
75021;SDS011;63583;49.976;20.182;2023-10-19T03:11:23;14.52;;;7.50;;
75021;SDS011;63583;49.976;20.182;2023-10-19T03:13:50;15.45;;;7.57;;
75021;SDS011;63583;49.976;20.182;2023-10-19T03:16:19;15.15;;;8.25;;
75021;SDS011;63583;49.976;20.182;2023-10-19T03:18:46;13.77;;;8.07;;
75021;SDS011;63583;49.976;20.182;2023-10-19T03:21:12;13.80;;;6.85;;
75021;SDS011;63583;49.976;20.182;2023-10-19T03:23:38;14.45;;;7.72;;
75021;SDS011;63583;49.976;20.182;2023-10-19T03:26:04;14.52;;;6.88;;
75021;SDS011;63583;49.976;20.182;2023-10-19T03:28:49;12.00;;;6.38;;
75021;SDS011;63583;49.976;20.182;2023-10-19T03:31:23;11.77;;;6.85;;
75021;SDS011;63583;49.976;20.182;2023-10-19T03:33:52;13.45;;;6.82;;
75021;SDS011;63583;49.976;20.182;2023-10-19T03:36:24;13.57;;;6.95;;
75021;SDS011;63583;49.976;20.182;2023-10-19T03:38:51;12.57;;;6.55;;
75021;SDS011;63583;49.976;20.182;2023-10-19T03:41:19;11.57;;;6.93;;
75021;SDS011;63583;49.976;20.182;2023-10-19T03:43:53;11.90;;;6.30;;
75021;SDS011;63583;49.976;20.182;2023-10-19T03:46:20;12.82;;;7.40;;
75021;SDS011;63583;49.976;20.182;2023-10-19T03:48:57;13.85;;;6.75;;
75021;SDS011;63583;49.976;20.182;2023-10-19T03:51:38;13.15;;;7.28;;
75021;SDS011;63583;49.976;20.182;2023-10-19T03:54:27;13.68;;;6.95;;
75021;SDS011;63583;49.976;20.182;2023-10-19T03:59:20;15.38;;;7.45;;
75021;SDS011;63583;49.976;20.182;2023-10-19T04:01:46;17.10;;;8.82;;
75021;SDS011;63583;49.976;20.182;2023-10-19T04:04:12;15.63;;;8.48;;
75021;SDS011;63583;49.976;20.182;2023-10-19T04:06:39;18.10;;;9.35;;
75021;SDS011;63583;49.976;20.182;2023-10-19T04:09:19;15.10;;;8.75;;
75021;SDS011;63583;49.976;20.182;2023-10-19T04:11:45;19.38;;;9.75;;
75021;SDS011;63583;49.976;20.182;2023-10-19T04:14:14;15.55;;;8.80;;
75021;SDS011;63583;49.976;20.182;2023-10-19T04:16:41;21.48;;;11.32;;
75021;SDS011;63583;49.976;20.182;2023-10-19T04:19:10;24.13;;;12.85;;
75021;SDS011;63583;49.976;20.182;2023-10-19T04:21:36;26.83;;;14.38;;
75021;SDS011;63583;49.976;20.182;2023-10-19T04:24:07;25.42;;;14.90;;
75021;SDS011;63583;49.976;20.182;2023-10-19T04:26:34;21.40;;;11.20;;
75021;SDS011;63583;49.976;20.182;2023-10-19T04:29:04;18.50;;;10.15;;
75021;SDS011;63583;49.976;20.182;2023-10-19T04:31:37;20.70;;;10.35;;
75021;SDS011;63583;49.976;20.182;2023-10-19T04:34:14;26.08;;;13.18;;
75021;SDS011;63583;49.976;20.182;2023-10-19T04:36:46;28.23;;;16.20;;
75021;SDS011;63583;49.976;20.182;2023-10-19T04:39:16;27.70;;;15.32;;
75021;SDS011;63583;49.976;20.182;2023-10-19T04:41:45;24.17;;;15.70;;
75021;SDS011;63583;49.976;20.182;2023-10-19T04:44:11;26.15;;;14.98;;
75021;SDS011;63583;49.976;20.182;2023-10-19T04:46:37;25.17;;;15.32;;
75021;SDS011;63583;49.976;20.182;2023-10-19T04:49:03;24.60;;;12.95;;
75021;SDS011;63583;49.976;20.182;2023-10-19T04:51:29;23.55;;;12.35;;
75021;SDS011;63583;49.976;20.182;2023-10-19T04:53:55;20.38;;;12.13;;
75021;SDS011;63583;49.976;20.182;2023-10-19T04:56:21;18.10;;;11.25;;
75021;SDS011;63583;49.976;20.182;2023-10-19T04:58:47;19.08;;;10.75;;
75021;SDS011;63583;49.976;20.182;2023-10-19T05:01:14;19.38;;;11.20;;
75021;SDS011;63583;49.976;20.182;2023-10-19T05:03:41;19.73;;;10.65;;
75021;SDS011;63583;49.976;20.182;2023-10-19T05:06:07;17.92;;;9.27;;
75021;SDS011;63583;49.976;20.182;2023-10-19T05:08:35;19.50;;;9.88;;
75021;SDS011;63583;49.976;20.182;2023-10-19T05:11:02;19.08;;;9.60;;
75021;SDS011;63583;49.976;20.182;2023-10-19T05:13:29;19.55;;;11.35;;
75021;SDS011;63583;49.976;20.182;2023-10-19T05:15:56;19.45;;;9.60;;
75021;SDS011;63583;49.976;20.182;2023-10-19T05:18:24;19.33;;;10.20;;
75021;SDS011;63583;49.976;20.182;2023-10-19T05:20:54;17.67;;;10.77;;
75021;SDS011;63583;49.976;20.182;2023-10-19T05:23:23;20.65;;;10.57;;
75021;SDS011;63583;49.976;20.182;2023-10-19T05:25:52;20.58;;;12.57;;
75021;SDS011;63583;49.976;20.182;2023-10-19T05:28:19;22.92;;;13.90;;
75021;SDS011;63583;49.976;20.182;2023-10-19T05:30:47;28.98;;;15.93;;
75021;SDS011;63583;49.976;20.182;2023-10-19T05:33:14;27.55;;;14.38;;
75021;SDS011;63583;49.976;20.182;2023-10-19T05:35:40;24.38;;;13.57;;
75021;SDS011;63583;49.976;20.182;2023-10-19T05:38:06;26.20;;;14.68;;
75021;SDS011;63583;49.976;20.182;2023-10-19T05:40:33;24.00;;;14.05;;
75021;SDS011;63583;49.976;20.182;2023-10-19T05:42:59;27.00;;;13.27;;
75021;SDS011;63583;49.976;20.182;2023-10-19T05:45:27;22.73;;;12.07;;
75021;SDS011;63583;49.976;20.182;2023-10-19T05:47:56;20.85;;;11.10;;
75021;SDS011;63583;49.976;20.182;2023-10-19T05:50:23;20.58;;;11.57;;
75021;SDS011;63583;49.976;20.182;2023-10-19T05:52:49;24.70;;;13.05;;
75021;SDS011;63583;49.976;20.182;2023-10-19T05:55:15;20.08;;;11.90;;
75021;SDS011;63583;49.976;20.182;2023-10-19T05:57:41;22.05;;;12.65;;
75021;SDS011;63583;49.976;20.182;2023-10-19T06:00:08;24.02;;;14.25;;
75021;SDS011;63583;49.976;20.182;2023-10-19T06:02:42;28.20;;;15.43;;
75021;SDS011;63583;49.976;20.182;2023-10-19T06:05:14;29.65;;;15.13;;
75021;SDS011;63583;49.976;20.182;2023-10-19T06:07:42;31.55;;;16.88;;
75021;SDS011;63583;49.976;20.182;2023-10-19T06:10:13;30.88;;;16.73;;
75021;SDS011;63583;49.976;20.182;2023-10-19T06:12:46;33.70;;;19.27;;
75021;SDS011;63583;49.976;20.182;2023-10-19T06:15:15;33.15;;;18.10;;
75021;SDS011;63583;49.976;20.182;2023-10-19T06:17:43;32.78;;;18.42;;
75021;SDS011;63583;49.976;20.182;2023-10-19T06:20:09;31.90;;;16.80;;
75021;SDS011;63583;49.976;20.182;2023-10-19T06:22:46;28.42;;;16.98;;
75021;SDS011;63583;49.976;20.182;2023-10-19T06:25:16;26.45;;;16.25;;
75021;SDS011;63583;49.976;20.182;2023-10-19T06:27:46;25.63;;;16.15;;
75021;SDS011;63583;49.976;20.182;2023-10-19T06:30:13;27.88;;;16.65;;
75021;SDS011;63583;49.976;20.182;2023-10-19T06:32:50;32.05;;;18.73;;
75021;SDS011;63583;49.976;20.182;2023-10-19T06:35:19;29.13;;;16.38;;
75021;SDS011;63583;49.976;20.182;2023-10-19T06:37:46;29.77;;;17.65;;
75021;SDS011;63583;49.976;20.182;2023-10-19T06:40:12;29.27;;;17.65;;
75021;SDS011;63583;49.976;20.182;2023-10-19T06:42:43;40.50;;;20.75;;
75021;SDS011;63583;49.976;20.182;2023-10-19T06:45:12;33.58;;;19.33;;
75021;SDS011;63583;49.976;20.182;2023-10-19T06:47:45;40.05;;;20.80;;
75021;SDS011;63583;49.976;20.182;2023-10-19T06:50:12;33.38;;;19.20;;
75021;SDS011;63583;49.976;20.182;2023-10-19T06:52:41;37.55;;;20.45;;
75021;SDS011;63583;49.976;20.182;2023-10-19T06:55:08;40.88;;;21.20;;
75021;SDS011;63583;49.976;20.182;2023-10-19T06:57:47;37.78;;;23.15;;
75021;SDS011;63583;49.976;20.182;2023-10-19T07:00:18;41.22;;;24.15;;
75021;SDS011;63583;49.976;20.182;2023-10-19T07:02:46;46.30;;;24.33;;
75021;SDS011;63583;49.976;20.182;2023-10-19T07:05:13;41.67;;;24.00;;
75021;SDS011;63583;49.976;20.182;2023-10-19T07:07:44;43.20;;;24.58;;
75021;SDS011;63583;49.976;20.182;2023-10-19T07:10:10;47.90;;;24.67;;
75021;SDS011;63583;49.976;20.182;2023-10-19T07:12:42;38.20;;;21.52;;
75021;SDS011;63583;49.976;20.182;2023-10-19T07:15:09;40.92;;;23.25;;
75021;SDS011;63583;49.976;20.182;2023-10-19T07:17:42;43.08;;;21.73;;
75021;SDS011;63583;49.976;20.182;2023-10-19T07:20:09;38.80;;;22.33;;
75021;SDS011;63583;49.976;20.182;2023-10-19T07:22:51;33.88;;;19.42;;
75021;SDS011;63583;49.976;20.182;2023-10-19T07:25:17;42.65;;;22.73;;
75021;SDS011;63583;49.976;20.182;2023-10-19T07:27:47;39.08;;;22.10;;
75021;SDS011;63583;49.976;20.182;2023-10-19T07:30:15;40.42;;;21.20;;
75021;SDS011;63583;49.976;20.182;2023-10-19T07:32:46;34.75;;;20.77;;
75021;SDS011;63583;49.976;20.182;2023-10-19T07:35:18;24.90;;;15.20;;
75021;SDS011;63583;49.976;20.182;2023-10-19T07:37:45;28.48;;;16.58;;
75021;SDS011;63583;49.976;20.182;2023-10-19T07:40:13;27.52;;;16.33;;
75021;SDS011;63583;49.976;20.182;2023-10-19T07:42:39;19.90;;;12.18;;
75021;SDS011;63583;49.976;20.182;2023-10-19T07:45:06;32.42;;;18.08;;
75021;SDS011;63583;49.976;20.182;2023-10-19T07:47:38;29.33;;;18.02;;
75021;SDS011;63583;49.976;20.182;2023-10-19T07:50:08;28.58;;;16.92;;
75021;SDS011;63583;49.976;20.182;2023-10-19T07:52:38;29.98;;;17.35;;
75021;SDS011;63583;49.976;20.182;2023-10-19T07:55:04;33.58;;;19.20;;
75021;SDS011;63583;49.976;20.182;2023-10-19T07:57:32;26.90;;;16.63;;
75021;SDS011;63583;49.976;20.182;2023-10-19T07:59:59;28.27;;;16.10;;
75021;SDS011;63583;49.976;20.182;2023-10-19T08:02:25;25.73;;;17.15;;
75021;SDS011;63583;49.976;20.182;2023-10-19T08:04:51;29.98;;;16.25;;
75021;SDS011;63583;49.976;20.182;2023-10-19T08:07:18;21.98;;;14.70;;
75021;SDS011;63583;49.976;20.182;2023-10-19T08:09:44;26.75;;;16.33;;
75021;SDS011;63583;49.976;20.182;2023-10-19T08:12:10;25.23;;;15.43;;
75021;SDS011;63583;49.976;20.182;2023-10-19T08:14:39;22.73;;;14.27;;
75021;SDS011;63583;49.976;20.182;2023-10-19T08:17:05;25.08;;;15.32;;
75021;SDS011;63583;49.976;20.182;2023-10-19T08:19:34;25.38;;;14.55;;
75021;SDS011;63583;49.976;20.182;2023-10-19T08:22:01;25.02;;;15.30;;
75021;SDS011;63583;49.976;20.182;2023-10-19T08:24:27;25.45;;;16.02;;
75021;SDS011;63583;49.976;20.182;2023-10-19T08:26:56;21.80;;;13.27;;
75021;SDS011;63583;49.976;20.182;2023-10-19T08:29:21;23.88;;;13.25;;
75021;SDS011;63583;49.976;20.182;2023-10-19T08:31:49;24.33;;;13.68;;
75021;SDS011;63583;49.976;20.182;2023-10-19T08:34:15;24.50;;;14.60;;
75021;SDS011;63583;49.976;20.182;2023-10-19T08:36:41;22.95;;;14.57;;
75021;SDS011;63583;49.976;20.182;2023-10-19T08:39:08;26.02;;;15.52;;
75021;SDS011;63583;49.976;20.182;2023-10-19T08:41:39;27.25;;;15.93;;
75021;SDS011;63583;49.976;20.182;2023-10-19T08:44:06;22.67;;;13.35;;
75021;SDS011;63583;49.976;20.182;2023-10-19T08:46:38;23.83;;;14.88;;
75021;SDS011;63583;49.976;20.182;2023-10-19T08:49:09;23.15;;;14.27;;
75021;SDS011;63583;49.976;20.182;2023-10-19T08:51:38;24.23;;;13.35;;
75021;SDS011;63583;49.976;20.182;2023-10-19T08:54:04;17.75;;;11.23;;
75021;SDS011;63583;49.976;20.182;2023-10-19T08:56:31;21.52;;;12.52;;
75021;SDS011;63583;49.976;20.182;2023-10-19T08:59:01;22.33;;;12.32;;
75021;SDS011;63583;49.976;20.182;2023-10-19T09:01:28;18.63;;;11.40;;
75021;SDS011;63583;49.976;20.182;2023-10-19T09:03:57;19.90;;;11.43;;
75021;SDS011;63583;49.976;20.182;2023-10-19T09:06:24;19.08;;;12.73;;
75021;SDS011;63583;49.976;20.182;2023-10-19T09:08:50;24.42;;;12.60;;
75021;SDS011;63583;49.976;20.182;2023-10-19T09:11:16;20.20;;;12.05;;
75021;SDS011;63583;49.976;20.182;2023-10-19T09:13:50;22.48;;;12.25;;
75021;SDS011;63583;49.976;20.182;2023-10-19T09:16:18;22.63;;;12.23;;
75021;SDS011;63583;49.976;20.182;2023-10-19T09:18:47;21.00;;;12.23;;
75021;SDS011;63583;49.976;20.182;2023-10-19T09:21:17;20.05;;;12.25;;
75021;SDS011;63583;49.976;20.182;2023-10-19T09:23:53;18.58;;;10.70;;
75021;SDS011;63583;49.976;20.182;2023-10-19T09:26:20;20.70;;;11.50;;
75021;SDS011;63583;49.976;20.182;2023-10-19T09:28:50;19.33;;;11.38;;
75021;SDS011;63583;49.976;20.182;2023-10-19T09:31:18;19.17;;;11.05;;
75021;SDS011;63583;49.976;20.182;2023-10-19T09:33:44;17.42;;;10.95;;
75021;SDS011;63583;49.976;20.182;2023-10-19T09:36:12;17.10;;;11.10;;
75021;SDS011;63583;49.976;20.182;2023-10-19T09:38:48;18.05;;;11.57;;
75021;SDS011;63583;49.976;20.182;2023-10-19T09:41:17;18.15;;;11.18;;
75021;SDS011;63583;49.976;20.182;2023-10-19T09:43:44;20.08;;;11.25;;
75021;SDS011;63583;49.976;20.182;2023-10-19T09:46:12;18.98;;;11.23;;
75021;SDS011;63583;49.976;20.182;2023-10-19T09:48:47;23.05;;;12.13;;
75021;SDS011;63583;49.976;20.182;2023-10-19T09:53:47;18.25;;;10.95;;
75021;SDS011;63583;49.976;20.182;2023-10-19T09:56:27;17.85;;;11.57;;
75021;SDS011;63583;49.976;20.182;2023-10-19T09:59:40;17.20;;;11.10;;
75021;SDS011;63583;49.976;20.182;2023-10-19T10:02:10;18.45;;;11.18;;
75021;SDS011;63583;49.976;20.182;2023-10-19T10:04:40;16.08;;;10.57;;
75021;SDS011;63583;49.976;20.182;2023-10-19T10:07:08;19.17;;;12.05;;
75021;SDS011;63583;49.976;20.182;2023-10-19T10:09:40;17.67;;;10.68;;
75021;SDS011;63583;49.976;20.182;2023-10-19T10:12:17;19.10;;;10.70;;
75021;SDS011;63583;49.976;20.182;2023-10-19T10:17:41;20.88;;;12.23;;
75021;SDS011;63583;49.976;20.182;2023-10-19T10:22:39;16.85;;;10.63;;
75021;SDS011;63583;49.976;20.182;2023-10-19T10:25:06;17.10;;;11.20;;
75021;SDS011;63583;49.976;20.182;2023-10-19T10:27:40;21.02;;;13.82;;
75021;SDS011;63583;49.976;20.182;2023-10-19T10:30:16;20.42;;;13.00;;
75021;SDS011;63583;49.976;20.182;2023-10-19T10:38:10;19.70;;;11.35;;
75021;SDS011;63583;49.976;20.182;2023-10-19T10:40:46;18.85;;;12.07;;
75021;SDS011;63583;49.976;20.182;2023-10-19T10:43:13;20.35;;;12.40;;
75021;SDS011;63583;49.976;20.182;2023-10-19T10:45:39;17.00;;;11.77;;
75021;SDS011;63583;49.976;20.182;2023-10-19T10:48:14;18.98;;;12.10;;
75021;SDS011;63583;49.976;20.182;2023-10-19T10:50:41;18.52;;;11.85;;
75021;SDS011;63583;49.976;20.182;2023-10-19T10:53:08;20.65;;;12.45;;
75021;SDS011;63583;49.976;20.182;2023-10-19T10:55:36;21.42;;;12.93;;
75021;SDS011;63583;49.976;20.182;2023-10-19T10:58:03;20.05;;;13.07;;
75021;SDS011;63583;49.976;20.182;2023-10-19T11:00:30;25.05;;;14.00;;
75021;SDS011;63583;49.976;20.182;2023-10-19T11:03:02;22.35;;;12.60;;
75021;SDS011;63583;49.976;20.182;2023-10-19T11:05:35;19.27;;;12.75;;
75021;SDS011;63583;49.976;20.182;2023-10-19T11:08:09;23.90;;;13.48;;
75021;SDS011;63583;49.976;20.182;2023-10-19T11:10:39;23.23;;;13.63;;
75021;SDS011;63583;49.976;20.182;2023-10-19T11:13:09;22.10;;;13.57;;
75021;SDS011;63583;49.976;20.182;2023-10-19T11:15:36;24.92;;;13.18;;
75021;SDS011;63583;49.976;20.182;2023-10-19T11:18:06;20.92;;;13.10;;
75021;SDS011;63583;49.976;20.182;2023-10-19T11:20:35;23.95;;;13.50;;
75021;SDS011;63583;49.976;20.182;2023-10-19T11:23:01;20.38;;;12.95;;
75021;SDS011;63583;49.976;20.182;2023-10-19T11:25:28;24.33;;;14.98;;
75021;SDS011;63583;49.976;20.182;2023-10-19T11:27:59;21.83;;;13.38;;
75021;SDS011;63583;49.976;20.182;2023-10-19T11:30:27;19.33;;;13.68;;
75021;SDS011;63583;49.976;20.182;2023-10-19T11:32:55;23.58;;;13.77;;
75021;SDS011;63583;49.976;20.182;2023-10-19T11:35:25;26.75;;;15.30;;
75021;SDS011;63583;49.976;20.182;2023-10-19T11:37:54;21.92;;;13.05;;
75021;SDS011;63583;49.976;20.182;2023-10-19T11:40:21;21.17;;;14.32;;
75021;SDS011;63583;49.976;20.182;2023-10-19T11:42:48;25.20;;;14.85;;
75021;SDS011;63583;49.976;20.182;2023-10-19T11:45:14;21.83;;;14.38;;
75021;SDS011;63583;49.976;20.182;2023-10-19T11:47:45;22.10;;;14.73;;
75021;SDS011;63583;49.976;20.182;2023-10-19T11:50:11;29.67;;;15.50;;
75021;SDS011;63583;49.976;20.182;2023-10-19T11:52:41;27.98;;;15.75;;
75021;SDS011;63583;49.976;20.182;2023-10-19T11:55:08;26.67;;;17.10;;
75021;SDS011;63583;49.976;20.182;2023-10-19T11:57:34;26.45;;;15.77;;
75021;SDS011;63583;49.976;20.182;2023-10-19T12:00:01;24.55;;;15.55;;
75021;SDS011;63583;49.976;20.182;2023-10-19T12:02:34;25.90;;;15.75;;
75021;SDS011;63583;49.976;20.182;2023-10-19T12:05:03;25.45;;;15.38;;
75021;SDS011;63583;49.976;20.182;2023-10-19T12:07:30;27.30;;;17.83;;
75021;SDS011;63583;49.976;20.182;2023-10-19T12:09:59;25.88;;;16.95;;
75021;SDS011;63583;49.976;20.182;2023-10-19T12:12:25;24.77;;;15.85;;
75021;SDS011;63583;49.976;20.182;2023-10-19T12:14:50;28.52;;;17.00;;
75021;SDS011;63583;49.976;20.182;2023-10-19T12:19:47;30.02;;;16.80;;
75021;SDS011;63583;49.976;20.182;2023-10-19T12:22:13;29.60;;;17.95;;
75021;SDS011;63583;49.976;20.182;2023-10-19T12:24:38;29.38;;;18.23;;
75021;SDS011;63583;49.976;20.182;2023-10-19T12:27:04;32.90;;;18.63;;
75021;SDS011;63583;49.976;20.182;2023-10-19T12:29:30;30.35;;;20.38;;
75021;SDS011;63583;49.976;20.182;2023-10-19T12:31:57;34.40;;;20.02;;
75021;SDS011;63583;49.976;20.182;2023-10-19T12:34:23;34.42;;;19.85;;
75021;SDS011;63583;49.976;20.182;2023-10-19T12:36:49;34.33;;;20.15;;
75021;SDS011;63583;49.976;20.182;2023-10-19T12:39:16;36.25;;;20.95;;
75021;SDS011;63583;49.976;20.182;2023-10-19T12:42:01;38.28;;;22.50;;
75021;SDS011;63583;49.976;20.182;2023-10-19T12:44:27;34.40;;;20.80;;
75021;SDS011;63583;49.976;20.182;2023-10-19T12:46:55;34.60;;;21.48;;
75021;SDS011;63583;49.976;20.182;2023-10-19T12:49:22;33.47;;;19.23;;
75021;SDS011;63583;49.976;20.182;2023-10-19T12:51:52;26.35;;;16.52;;
75021;SDS011;63583;49.976;20.182;2023-10-19T12:54:18;23.48;;;14.98;;
75021;SDS011;63583;49.976;20.182;2023-10-19T12:56:44;25.95;;;15.27;;
75021;SDS011;63583;49.976;20.182;2023-10-19T12:59:09;24.13;;;14.90;;
75021;SDS011;63583;49.976;20.182;2023-10-19T13:01:35;24.88;;;15.27;;
75021;SDS011;63583;49.976;20.182;2023-10-19T13:04:01;24.33;;;15.20;;
75021;SDS011;63583;49.976;20.182;2023-10-19T13:06:42;24.73;;;16.35;;
75021;SDS011;63583;49.976;20.182;2023-10-19T13:09:07;23.92;;;14.88;;
75021;SDS011;63583;49.976;20.182;2023-10-19T13:11:34;24.02;;;14.75;;
75021;SDS011;63583;49.976;20.182;2023-10-19T13:14:00;24.98;;;15.68;;
75021;SDS011;63583;49.976;20.182;2023-10-19T13:16:26;25.73;;;16.13;;
75021;SDS011;63583;49.976;20.182;2023-10-19T13:18:53;22.58;;;14.73;;
75021;SDS011;63583;49.976;20.182;2023-10-19T13:21:19;23.92;;;15.18;;
75021;SDS011;63583;49.976;20.182;2023-10-19T13:23:51;28.10;;;15.98;;
75021;SDS011;63583;49.976;20.182;2023-10-19T13:26:17;25.63;;;16.23;;
75021;SDS011;63583;49.976;20.182;2023-10-19T13:28:43;24.08;;;15.93;;
75021;SDS011;63583;49.976;20.182;2023-10-19T13:31:09;22.10;;;13.43;;
75021;SDS011;63583;49.976;20.182;2023-10-19T13:33:35;23.45;;;13.93;;
75021;SDS011;63583;49.976;20.182;2023-10-19T13:36:01;22.00;;;14.02;;
75021;SDS011;63583;49.976;20.182;2023-10-19T13:38:27;22.52;;;14.45;;
75021;SDS011;63583;49.976;20.182;2023-10-19T13:40:54;21.85;;;14.70;;
75021;SDS011;63583;49.976;20.182;2023-10-19T13:43:19;20.63;;;13.27;;
75021;SDS011;63583;49.976;20.182;2023-10-19T13:45:46;23.98;;;14.40;;
75021;SDS011;63583;49.976;20.182;2023-10-19T13:48:13;20.70;;;12.98;;
75021;SDS011;63583;49.976;20.182;2023-10-19T13:50:46;22.88;;;13.60;;
75021;SDS011;63583;49.976;20.182;2023-10-19T13:53:18;23.27;;;14.98;;
75021;SDS011;63583;49.976;20.182;2023-10-19T13:55:44;21.85;;;14.52;;
75021;SDS011;63583;49.976;20.182;2023-10-19T13:58:10;24.40;;;14.95;;
75021;SDS011;63583;49.976;20.182;2023-10-19T14:00:36;24.20;;;15.25;;
75021;SDS011;63583;49.976;20.182;2023-10-19T14:03:05;23.40;;;14.70;;
75021;SDS011;63583;49.976;20.182;2023-10-19T14:05:39;28.65;;;15.15;;
75021;SDS011;63583;49.976;20.182;2023-10-19T14:08:12;29.33;;;16.63;;
75021;SDS011;63583;49.976;20.182;2023-10-19T14:10:39;33.22;;;19.20;;
75021;SDS011;63583;49.976;20.182;2023-10-19T14:13:08;57.13;;;29.23;;
75021;SDS011;63583;49.976;20.182;2023-10-19T14:15:37;51.75;;;27.38;;
75021;SDS011;63583;49.976;20.182;2023-10-19T14:18:03;55.53;;;28.60;;
75021;SDS011;63583;49.976;20.182;2023-10-19T14:20:30;46.70;;;26.10;;
75021;SDS011;63583;49.976;20.182;2023-10-19T14:22:57;48.92;;;28.20;;
75021;SDS011;63583;49.976;20.182;2023-10-19T14:25:23;64.85;;;33.75;;
75021;SDS011;63583;49.976;20.182;2023-10-19T14:27:50;52.53;;;29.10;;
75021;SDS011;63583;49.976;20.182;2023-10-19T14:30:21;46.45;;;26.10;;
75021;SDS011;63583;49.976;20.182;2023-10-19T14:32:48;41.25;;;23.73;;
75021;SDS011;63583;49.976;20.182;2023-10-19T14:35:15;49.45;;;29.38;;
75021;SDS011;63583;49.976;20.182;2023-10-19T14:37:46;42.50;;;25.17;;
75021;SDS011;63583;49.976;20.182;2023-10-19T14:40:16;41.97;;;25.27;;
75021;SDS011;63583;49.976;20.182;2023-10-19T14:42:45;43.47;;;25.30;;
75021;SDS011;63583;49.976;20.182;2023-10-19T14:45:12;41.75;;;24.40;;